^^
Meteo Knjazevac Station Historical Data
Daily Summary for September 25, 2021 Units:  English    Metric   Both
Daily Weekly Monthly Yearly Custom
  High: Low: Average:
Temperature: 52.5 °F 36.5 °F 47 °F
Dew Point: 45.7 °F 32.4 °F 42.1 °F
Humidity: 88% 68% 83%
Wind Speed: 16mph 1mph 7.4mph
Wind Gust: 29mph - -
Wind- - SW
Pressure: 29.65 in 29.45 in -
Precipitation: 0.11 in    
Historical Graphs
 
 
Tabular Data for September 25, 2021
Time Temperature Dew Point Pressure Wind Wind Speed Wind Gust Humidity Rainfall Rate (Hourly) solar Conditions
00:00 52.5 °F 42.3 °F 29.48 in South 7 mph 14 mph 68% 0.00 in 0 W/m2
00:10 52.5 °F 43 °F 29.48 in South 8 mph 18 mph 70% 0.00 in 0 W/m2
00:20 51.8 °F 43.8 °F 29.49 in South 7 mph 20 mph 74% 0.01 in 0 W/m2
00:30 51.1 °F 44.5 °F 29.49 in SSW 7 mph 20 mph 78% 0.01 in 0 W/m2
00:40 50.4 °F 44.4 °F 29.49 in South 7 mph 14 mph 80% 0.00 in 0 W/m2
00:50 50.2 °F 44.6 °F 29.48 in South 6 mph 15 mph 81% 0.00 in 0 W/m2
01:00 49.8 °F 44.9 °F 29.48 in SSE 6 mph 14 mph 83% 0.00 in 0 W/m2
01:10 49.5 °F 44.5 °F 29.47 in South 3 mph 13 mph 83% 0.00 in 0 W/m2
01:20 49.1 °F 44.5 °F 29.47 in SSW 6 mph 10 mph 84% 0.00 in 0 W/m2
01:30 48.9 °F 44.6 °F 29.46 in South 8 mph 17 mph 85% 0.00 in 0 W/m2
01:40 48.9 °F 44.3 °F 29.46 in South 6 mph 16 mph 84% 0.00 in 0 W/m2
01:50 49.1 °F 44.2 °F 29.46 in SW 3 mph 12 mph 83% 0.00 in 0 W/m2
02:00 49.1 °F 44.2 °F 29.47 in WNW 2 mph 7 mph 83% 0.00 in 0 W/m2
02:10 49.5 °F 43.9 °F 29.47 in SE 2 mph 10 mph 81% 0.00 in 0 W/m2
02:20 49.6 °F 43.7 °F 29.46 in SSW 7 mph 18 mph 80% 0.00 in 0 W/m2
02:30 50.4 °F 44.1 °F 29.47 in SSW 10 mph 20 mph 79% 0.00 in 0 W/m2
02:40 50.7 °F 44.4 °F 29.46 in SW 10 mph 24 mph 79% 0.01 in 0 W/m2
02:50 50.7 °F 44.8 °F 29.46 in SW 9 mph 15 mph 80% 0.01 in 0 W/m2
03:00 50.4 °F 45.4 °F 29.46 in SW 8 mph 19 mph 83% 0.01 in 0 W/m2
03:10 50 °F 45.4 °F 29.46 in SW 9 mph 15 mph 84% 0.00 in 0 W/m2
03:20 49.8 °F 45.2 °F 29.45 in SW 7 mph 15 mph 84% 0.00 in 0 W/m2
03:30 49.5 °F 45.4 °F 29.46 in SSW 5 mph 14 mph 86% 0.00 in 0 W/m2
03:40 49.6 °F 45.3 °F 29.46 in SSW 6 mph 17 mph 85% 0.01 in 0 W/m2
03:50 49.3 °F 45.3 °F 29.47 in SSW 3 mph 12 mph 86% 0.01 in 0 W/m2
04:00 49.1 °F 45.7 °F 29.48 in SSW 1 mph 6 mph 88% 0.00 in 0 W/m2
04:10 49.1 °F 45.7 °F 29.48 in West 2 mph 5 mph 88% 0.00 in 0 W/m2
04:20 49.1 °F 45.7 °F 29.49 in WSW 5 mph 8 mph 88% 0.00 in 0 W/m2
04:30 49.1 °F 45.1 °F 29.49 in SW 9 mph 15 mph 86% 0.01 in 0 W/m2
04:40 49.1 °F 45.7 °F 29.49 in SW 8 mph 14 mph 88% 0.00 in 0 W/m2
04:50 49.3 °F 45 °F 29.49 in SW 12 mph 25 mph 85% 0.02 in 0 W/m2
05:00 49.1 °F 45.1 °F 29.50 in SW 14 mph 25 mph 86% 0.03 in 0 W/m2
05:10 48.9 °F 44.9 °F 29.51 in SW 12 mph 23 mph 86% 0.02 in 0 W/m2
05:20 48.1 °F 44.1 °F 29.54 in WSW 16 mph 24 mph 86% 0.02 in 0 W/m2
05:30 43.4 °F 38.6 °F 29.55 in West 10 mph 27 mph 83% 0.02 in 0 W/m2
05:40 41 °F 36.6 °F 29.57 in West 13 mph 29 mph 84% 0.00 in 0 W/m2
05:50 39.8 °F 35.3 °F 29.58 in West 10 mph 22 mph 84% 0.00 in 0 W/m2
06:00 39 °F 34.9 °F 29.60 in WSW 9 mph 18 mph 85% 0.00 in 0 W/m2
06:10 38.3 °F 34.2 °F 29.61 in WSW 7 mph 17 mph 85% 0.00 in 0 W/m2
06:20 37.8 °F 33.7 °F 29.61 in WSW 9 mph 17 mph 85% 0.00 in 0 W/m2
06:30 37.4 °F 33.3 °F 29.62 in WSW 10 mph 22 mph 85% 0.00 in 0 W/m2
06:40 37 °F 32.9 °F 29.62 in WSW 13 mph 22 mph 85% 0.00 in 0 W/m2
06:50 36.7 °F 32.9 °F 29.64 in WSW 7 mph 19 mph 86% 0.00 in 0 W/m2
07:00 36.5 °F 32.4 °F 29.64 in SW 3 mph 12 mph 85% 0.00 in 1 W/m2
07:10 36.5 °F 32.4 °F 29.65 in WSW 5 mph 7 mph 85% 0.00 in 2 W/m2
Knjazevac, Serbia
Compliments of Weather Underground - 2 mb